createdAt,value
2022-11-29T00:29:42.405Z,1004.54
2022-11-29T00:30:22.891Z,1004.55
2022-11-29T00:31:03.415Z,1004.54
2022-11-29T00:31:43.821Z,1004.53
2022-11-29T00:32:24.375Z,1004.59
2022-11-29T00:33:04.886Z,1004.6
2022-11-29T00:33:45.374Z,1004.57
2022-11-29T00:34:25.876Z,1004.61
2022-11-29T00:35:09.616Z,1004.64
2022-11-29T00:35:46.889Z,1004.6
2022-11-29T00:36:27.373Z,1004.66
2022-11-29T00:37:07.862Z,1004.65
2022-11-29T00:37:48.347Z,1004.61
2022-11-29T00:38:28.799Z,1004.65
2022-11-29T00:39:09.296Z,1004.63
2022-11-29T00:39:49.786Z,1004.61
2022-11-29T00:40:30.307Z,1004.62
2022-11-29T00:41:10.801Z,1004.63
2022-11-29T00:41:51.322Z,1004.64
2022-11-29T00:42:31.797Z,1004.64
2022-11-29T00:43:12.313Z,1004.66
2022-11-29T00:43:52.782Z,1004.65
2022-11-29T00:44:33.300Z,1004.64
2022-11-29T00:45:13.805Z,1004.7
2022-11-29T00:46:34.799Z,1004.67
2022-11-29T00:47:15.287Z,1004.64
2022-11-29T00:47:55.789Z,1004.61
2022-11-29T00:48:36.280Z,1004.59
2022-11-29T00:49:16.793Z,1004.63
2022-11-29T00:49:57.282Z,1004.62
2022-11-29T00:50:37.773Z,1004.59
2022-11-29T00:51:18.251Z,1004.61
2022-11-29T00:51:58.734Z,1004.61
2022-11-29T00:52:39.233Z,1004.63
2022-11-29T00:53:19.781Z,1004.6
2022-11-29T00:54:00.249Z,1004.59
2022-11-29T00:54:40.840Z,1004.62
2022-11-29T00:55:21.314Z,1004.6
2022-11-29T00:56:01.760Z,1004.59
2022-11-29T00:56:42.250Z,1004.62
2022-11-29T00:57:22.783Z,1004.64
2022-11-29T00:58:03.308Z,1004.61
2022-11-29T00:58:44.384Z,1004.64
2022-11-29T00:59:24.870Z,1004.66
2022-11-29T01:00:05.342Z,1004.64
2022-11-29T01:01:26.400Z,1004.65
2022-11-29T01:02:06.958Z,1004.66
2022-11-29T01:02:47.422Z,1004.66
2022-11-29T01:03:27.853Z,1004.65
2022-11-29T01:04:08.326Z,1004.63
2022-11-29T01:04:48.830Z,1004.66
2022-11-29T01:05:29.337Z,1004.69
2022-11-29T01:06:09.851Z,1004.66
2022-11-29T01:06:50.348Z,1004.66
2022-11-29T01:07:30.899Z,1004.67
2022-11-29T01:08:11.367Z,1004.65
2022-11-29T01:08:51.894Z,1004.66
2022-11-29T01:09:32.378Z,1004.66
2022-11-29T01:10:12.867Z,1004.67
2022-11-29T01:11:33.850Z,1004.63
2022-11-29T01:12:14.383Z,1004.63
2022-11-29T01:12:54.807Z,1004.64
2022-11-29T01:13:35.291Z,1004.68
2022-11-29T01:14:15.790Z,1004.68
2022-11-29T01:14:56.278Z,1004.7
2022-11-29T01:15:36.835Z,1004.7
2022-11-29T01:16:17.391Z,1004.64
2022-11-29T01:16:57.841Z,1004.66
2022-11-29T01:17:38.235Z,1004.66
2022-11-29T01:18:18.734Z,1004.65
2022-11-29T01:18:59.251Z,1004.65
2022-11-29T01:19:39.721Z,1004.66
2022-11-29T01:20:20.211Z,1004.66
2022-11-29T01:21:41.312Z,1004.67
2022-11-29T01:22:21.719Z,1004.67
2022-11-29T01:23:02.189Z,1004.64
2022-11-29T01:23:42.688Z,1004.65
2022-11-29T01:24:23.178Z,1004.67
2022-11-29T01:25:03.665Z,1004.66
2022-11-29T01:25:44.148Z,1004.68
2022-11-29T01:26:24.687Z,1004.66
2022-11-29T01:27:05.149Z,1004.65
2022-11-29T01:27:45.631Z,1004.64
2022-11-29T01:28:26.101Z,1004.64
2022-11-29T01:29:06.609Z,1004.67
2022-11-29T01:29:47.055Z,1004.68
2022-11-29T01:30:27.625Z,1004.66
2022-11-29T01:31:08.011Z,1004.66
2022-11-29T01:31:48.487Z,1004.68
2022-11-29T01:32:28.953Z,1004.67
2022-11-29T01:33:09.487Z,1004.64
2022-11-29T01:33:49.961Z,1004.68
2022-11-29T01:34:30.439Z,1004.67
2022-11-29T01:35:10.939Z,1004.71
2022-11-29T01:35:51.434Z,1004.69
2022-11-29T01:36:31.944Z,1004.69
2022-11-29T01:37:12.454Z,1004.68
2022-11-29T01:37:52.907Z,1004.67
2022-11-29T01:39:13.878Z,1004.71
2022-11-29T01:39:54.376Z,1004.75
2022-11-29T01:40:34.922Z,1004.76
2022-11-29T01:41:15.380Z,1004.77
2022-11-29T01:41:55.921Z,1004.78
2022-11-29T01:42:36.396Z,1004.76
2022-11-29T01:43:16.867Z,1004.78
2022-11-29T01:43:57.393Z,1004.82
2022-11-29T01:44:37.832Z,1004.8
2022-11-29T01:45:18.350Z,1004.81
2022-11-29T01:46:39.342Z,1004.85
2022-11-29T01:47:19.880Z,1004.84
2022-11-29T01:48:00.351Z,1004.85
2022-11-29T01:48:40.843Z,1004.88
2022-11-29T01:49:21.317Z,1004.88
2022-11-29T01:50:01.829Z,1004.86
2022-11-29T01:50:42.366Z,1004.83
2022-11-29T01:51:22.852Z,1004.83
2022-11-29T01:52:03.332Z,1004.85
2022-11-29T01:52:43.834Z,1004.84
2022-11-29T01:53:24.305Z,1004.84
2022-11-29T01:54:04.823Z,1004.86
2022-11-29T01:54:45.549Z,1004.85
2022-11-29T01:55:25.824Z,1004.87
2022-11-29T01:56:46.859Z,1004.84
2022-11-29T01:57:27.364Z,1004.84
2022-11-29T01:58:07.826Z,1004.85
2022-11-29T01:58:48.331Z,1004.84
2022-11-29T01:59:28.839Z,1004.89
2022-11-29T02:00:09.339Z,1004.95
2022-11-29T02:00:49.793Z,1004.9
2022-11-29T02:01:30.339Z,1004.91
2022-11-29T02:02:10.814Z,1004.87
2022-11-29T02:02:51.357Z,1004.92
2022-11-29T02:03:31.784Z,1004.93
2022-11-29T02:04:12.289Z,1004.96
2022-11-29T02:04:52.791Z,1004.91
2022-11-29T02:05:33.291Z,1004.92
2022-11-29T02:06:13.813Z,1004.95
2022-11-29T02:06:54.298Z,1004.93
2022-11-29T02:07:34.864Z,1004.88
2022-11-29T02:08:15.317Z,1004.93
2022-11-29T02:08:55.804Z,1004.95
2022-11-29T02:09:36.325Z,1004.91
2022-11-29T02:10:16.817Z,1004.87
2022-11-29T02:10:57.291Z,1004.87
2022-11-29T02:11:37.791Z,1004.86
2022-11-29T02:12:18.283Z,1004.91
2022-11-29T02:12:58.779Z,1004.92
2022-11-29T02:13:39.296Z,1004.92
2022-11-29T02:14:19.783Z,1004.9
2022-11-29T02:15:00.317Z,1004.92
2022-11-29T02:15:40.861Z,1004.91
2022-11-29T02:16:21.368Z,1004.98
2022-11-29T02:17:01.806Z,1004.93
2022-11-29T02:17:42.302Z,1004.94
2022-11-29T02:18:22.819Z,1004.94
2022-11-29T02:19:43.788Z,1004.95
2022-11-29T02:20:24.310Z,1004.98
2022-11-29T02:21:04.857Z,1004.98
2022-11-29T02:21:45.319Z,1004.98
2022-11-29T02:22:25.829Z,1004.99
2022-11-29T02:23:06.319Z,1004.95
2022-11-29T02:23:46.803Z,1004.96
2022-11-29T02:24:27.309Z,1004.97
2022-11-29T02:25:07.784Z,1004.95
2022-11-29T02:25:48.335Z,1004.95
2022-11-29T02:26:28.846Z,1004.96
2022-11-29T02:27:09.347Z,1004.93
2022-11-29T02:27:49.849Z,1004.97
2022-11-29T02:28:30.345Z,1004.95
2022-11-29T02:29:10.799Z,1004.99
2022-11-29T02:32:23.063Z,1004.99
2022-11-29T02:33:15.389Z,1005
2022-11-29T02:34:07.367Z,1005.02
2022-11-29T02:36:56.091Z,1005.02
2022-11-29T02:37:36.321Z,1005.01
2022-11-29T02:38:16.793Z,1004.98
2022-11-29T02:38:57.264Z,1004.99
2022-11-29T02:39:37.817Z,1005.02
2022-11-29T02:40:18.276Z,1005.01
2022-11-29T02:40:58.754Z,1004.97
2022-11-29T02:41:39.208Z,1004.98
2022-11-29T02:42:19.673Z,1005.02
2022-11-29T02:43:00.169Z,1005.01
2022-11-29T02:43:40.636Z,1004.98
2022-11-29T02:44:21.093Z,1004.97
2022-11-29T02:45:01.626Z,1004.97
2022-11-29T02:45:42.189Z,1004.97
2022-11-29T02:46:22.748Z,1004.98
2022-11-29T02:47:03.184Z,1004.99
2022-11-29T02:47:43.683Z,1005.02
2022-11-29T02:48:24.131Z,1005.02
2022-11-29T02:49:04.677Z,1005.03
2022-11-29T02:49:45.184Z,1004.99
2022-11-29T02:50:25.620Z,1005.03
2022-11-29T02:51:06.100Z,1004.97
2022-11-29T02:51:46.608Z,1005.05
2022-11-29T02:52:27.050Z,1005
2022-11-29T02:53:07.618Z,1005.04
2022-11-29T02:53:48.101Z,1005.07
2022-11-29T02:54:28.681Z,1005.07
2022-11-29T02:55:09.152Z,1005.07
2022-11-29T02:55:49.622Z,1005.05
2022-11-29T02:56:30.102Z,1005.04
2022-11-29T02:57:10.666Z,1005.04
2022-11-29T02:57:51.106Z,1005.05
2022-11-29T02:58:31.581Z,1005.06
2022-11-29T02:59:12.047Z,1005.07
2022-11-29T02:59:52.541Z,1005.08
2022-11-29T03:00:33.008Z,1005.07
2022-11-29T03:01:13.559Z,1005.09
2022-11-29T03:01:54.020Z,1005.05
2022-11-29T03:02:34.556Z,1005.09
2022-11-29T03:03:14.979Z,1005.06
2022-11-29T03:03:55.497Z,1005.03
2022-11-29T03:05:16.498Z,1005.08
2022-11-29T03:05:56.947Z,1005.11
2022-11-29T03:06:37.390Z,1005.12
2022-11-29T03:07:17.913Z,1005.08
2022-11-29T03:07:58.435Z,1005.12
2022-11-29T03:08:38.914Z,1005.13
2022-11-29T03:09:19.369Z,1005.13
2022-11-29T03:09:59.872Z,1005.12
2022-11-29T03:10:40.427Z,1005.13
2022-11-29T03:11:20.879Z,1005.13
2022-11-29T03:12:01.358Z,1005.16
2022-11-29T03:12:41.927Z,1005.19
2022-11-29T03:13:22.401Z,1005.19
2022-11-29T03:14:02.860Z,1005.18
2022-11-29T03:14:43.646Z,1005.18
2022-11-29T03:15:23.939Z,1005.19
2022-11-29T03:16:04.370Z,1005.23
2022-11-29T03:16:44.839Z,1005.22
2022-11-29T03:17:25.323Z,1005.21
2022-11-29T03:18:05.832Z,1005.24
2022-11-29T03:18:46.300Z,1005.29
2022-11-29T03:19:26.799Z,1005.27
2022-11-29T03:20:07.310Z,1005.24
2022-11-29T03:20:47.846Z,1005.28
2022-11-29T03:21:28.284Z,1005.29
2022-11-29T03:22:08.794Z,1005.26
2022-11-29T03:22:49.254Z,1005.25
2022-11-29T03:23:29.749Z,1005.32
2022-11-29T03:24:10.268Z,1005.31
2022-11-29T03:24:50.787Z,1005.29
2022-11-29T03:25:31.255Z,1005.31
2022-11-29T03:26:11.732Z,1005.32
2022-11-29T03:26:52.182Z,1005.35
2022-11-29T03:27:32.701Z,1005.32
2022-11-29T03:28:13.144Z,1005.31
2022-11-29T03:28:53.678Z,1005.34
2022-11-29T03:29:34.177Z,1005.34
2022-11-29T03:30:14.711Z,1005.36
2022-11-29T03:30:55.204Z,1005.33
2022-11-29T03:31:35.673Z,1005.34
2022-11-29T03:32:16.148Z,1005.38
2022-11-29T03:32:56.633Z,1005.36
2022-11-29T03:33:37.081Z,1005.36
2022-11-29T03:34:17.597Z,1005.37
2022-11-29T03:34:58.111Z,1005.38
2022-11-29T03:35:38.639Z,1005.42
2022-11-29T03:36:19.113Z,1005.4
2022-11-29T03:36:59.615Z,1005.39
2022-11-29T03:37:40.086Z,1005.41
2022-11-29T03:38:20.579Z,1005.42
2022-11-29T03:39:01.052Z,1005.4
2022-11-29T03:39:41.522Z,1005.38
2022-11-29T03:40:22.003Z,1005.41
2022-11-29T03:41:02.524Z,1005.41
2022-11-29T03:41:42.958Z,1005.4
2022-11-29T03:42:23.492Z,1005.42
2022-11-29T03:43:03.927Z,1005.42
2022-11-29T03:43:44.427Z,1005.45
2022-11-29T03:44:25.791Z,1005.41
2022-11-29T03:45:05.460Z,1005.45
2022-11-29T03:45:46.024Z,1005.44
2022-11-29T03:46:26.537Z,1005.45
2022-11-29T03:47:06.950Z,1005.48
2022-11-29T03:47:47.516Z,1005.45
2022-11-29T03:49:08.472Z,1005.46
2022-11-29T03:49:48.914Z,1005.5
2022-11-29T03:50:29.427Z,1005.46
2022-11-29T03:51:09.899Z,1005.49
2022-11-29T03:51:50.418Z,1005.5
2022-11-29T03:52:30.916Z,1005.49
2022-11-29T03:53:11.510Z,1005.5
2022-11-29T03:53:52.017Z,1005.48
2022-11-29T03:54:32.478Z,1005.53
2022-11-29T03:55:12.976Z,1005.54
2022-11-29T03:55:53.410Z,1005.54
2022-11-29T03:56:33.926Z,1005.56
2022-11-29T03:57:14.403Z,1005.52
2022-11-29T03:57:54.883Z,1005.53
2022-11-29T03:58:35.381Z,1005.55
2022-11-29T03:59:15.847Z,1005.57
2022-11-29T03:59:56.357Z,1005.56
2022-11-29T04:00:36.828Z,1005.53
2022-11-29T04:01:17.337Z,1005.55
2022-11-29T04:01:57.789Z,1005.55
2022-11-29T04:02:38.309Z,1005.56
2022-11-29T04:03:18.766Z,1005.59
2022-11-29T04:03:59.247Z,1005.61
2022-11-29T04:04:39.763Z,1005.61
2022-11-29T04:05:20.172Z,1005.62
2022-11-29T04:06:00.697Z,1005.63
2022-11-29T04:06:41.248Z,1005.62
2022-11-29T04:07:21.815Z,1005.61
2022-11-29T04:08:02.357Z,1005.64
2022-11-29T04:08:42.744Z,1005.67
2022-11-29T04:09:23.267Z,1005.65
2022-11-29T04:10:03.751Z,1005.66
2022-11-29T04:10:44.215Z,1005.63
2022-11-29T04:11:24.738Z,1005.64
2022-11-29T04:12:05.234Z,1005.6
2022-11-29T04:12:45.727Z,1005.65
2022-11-29T04:13:26.162Z,1005.65
2022-11-29T04:14:06.745Z,1005.63
2022-11-29T04:14:47.333Z,1005.65
2022-11-29T04:15:27.737Z,1005.65
2022-11-29T04:16:08.315Z,1005.69
2022-11-29T04:16:48.700Z,1005.68
2022-11-29T04:17:29.208Z,1005.72
2022-11-29T04:18:09.702Z,1005.68
2022-11-29T04:18:50.176Z,1005.72
2022-11-29T04:19:30.677Z,1005.73
2022-11-29T04:20:11.226Z,1005.73
2022-11-29T04:20:51.640Z,1005.76
2022-11-29T04:21:32.140Z,1005.76
2022-11-29T04:22:12.630Z,1005.81
2022-11-29T04:22:53.139Z,1005.78
2022-11-29T04:23:33.605Z,1005.82
2022-11-29T04:24:14.103Z,1005.77
2022-11-29T04:24:54.623Z,1005.82
2022-11-29T04:25:35.599Z,1005.79
2022-11-29T04:26:16.111Z,1005.81
2022-11-29T04:26:56.589Z,1005.85
2022-11-29T04:27:37.081Z,1005.84
2022-11-29T04:28:17.547Z,1005.82
2022-11-29T04:28:58.047Z,1005.86
2022-11-29T04:29:38.497Z,1005.86
2022-11-29T04:30:18.992Z,1005.85
2022-11-29T04:30:59.529Z,1005.86
2022-11-29T04:31:40.041Z,1005.9
2022-11-29T04:32:20.586Z,1005.88
2022-11-29T04:33:01.069Z,1005.88
2022-11-29T04:33:41.592Z,1005.91
2022-11-29T04:34:22.003Z,1005.9
2022-11-29T04:35:02.496Z,1005.91
2022-11-29T04:35:42.993Z,1005.89
2022-11-29T04:36:23.470Z,1005.88
2022-11-29T04:37:03.938Z,1005.88
2022-11-29T04:37:44.451Z,1005.87
2022-11-29T04:38:24.972Z,1005.9
2022-11-29T04:39:05.465Z,1005.87
2022-11-29T04:39:45.960Z,1005.9
2022-11-29T04:40:26.451Z,1005.91
2022-11-29T04:41:06.948Z,1005.87
2022-11-29T04:41:47.426Z,1005.89
2022-11-29T04:42:27.900Z,1005.9
2022-11-29T04:43:08.399Z,1005.95
2022-11-29T04:43:48.913Z,1005.92
2022-11-29T04:44:29.379Z,1005.92
2022-11-29T04:45:09.845Z,1005.93
2022-11-29T04:45:50.343Z,1005.93
2022-11-29T04:46:30.818Z,1005.95
2022-11-29T04:47:11.302Z,1005.95
2022-11-29T04:47:51.788Z,1005.93
2022-11-29T04:48:32.265Z,1005.95
2022-11-29T04:49:12.723Z,1005.97
2022-11-29T04:49:53.247Z,1006.01
2022-11-29T04:50:33.702Z,1005.98
2022-11-29T04:51:14.171Z,1006.01
2022-11-29T04:51:54.642Z,1005.95
2022-11-29T04:52:35.183Z,1005.98
2022-11-29T04:53:15.670Z,1006.05
2022-11-29T04:53:56.147Z,1006.02
2022-11-29T04:55:22.811Z,1006.04
2022-11-29T04:55:57.614Z,1006.03
2022-11-29T04:56:38.026Z,1006.05
2022-11-29T04:57:18.615Z,1006.05
2022-11-29T04:57:59.058Z,1006.06
2022-11-29T04:58:39.510Z,1006.09
2022-11-29T04:59:20.012Z,1006.08
2022-11-29T05:00:00.524Z,1006.08
2022-11-29T05:00:41.071Z,1006.1
2022-11-29T05:01:21.626Z,1006.11
2022-11-29T05:02:02.106Z,1006.12
2022-11-29T05:02:42.517Z,1006.12
2022-11-29T05:03:22.991Z,1006.12
2022-11-29T05:04:03.520Z,1006.1
2022-11-29T05:04:44.198Z,1006.12
2022-11-29T05:05:24.527Z,1006.14
2022-11-29T05:06:05.882Z,1006.15
2022-11-29T05:06:46.414Z,1006.15
2022-11-29T05:07:26.990Z,1006.16
2022-11-29T05:08:07.432Z,1006.14
2022-11-29T05:08:47.892Z,1006.15
2022-11-29T05:09:28.451Z,1006.2
2022-11-29T05:10:08.866Z,1006.17
2022-11-29T05:10:49.392Z,1006.19
2022-11-29T05:11:29.847Z,1006.22
2022-11-29T05:12:10.429Z,1006.2
2022-11-29T05:12:50.832Z,1006.23
2022-11-29T05:13:31.348Z,1006.22
2022-11-29T05:14:11.840Z,1006.24
2022-11-29T05:14:52.361Z,1006.27
2022-11-29T05:15:32.859Z,1006.24
2022-11-29T05:16:13.427Z,1006.26
2022-11-29T05:16:53.892Z,1006.29
2022-11-29T05:17:34.436Z,1006.28
2022-11-29T05:18:14.874Z,1006.27
2022-11-29T05:18:55.350Z,1006.33
2022-11-29T05:19:35.854Z,1006.28
2022-11-29T05:20:16.305Z,1006.32
2022-11-29T05:20:56.823Z,1006.29
2022-11-29T05:21:37.371Z,1006.29
2022-11-29T05:22:17.841Z,1006.32
2022-11-29T05:22:58.308Z,1006.34
2022-11-29T05:23:38.795Z,1006.33
2022-11-29T05:24:19.277Z,1006.36
2022-11-29T05:24:59.845Z,1006.35
2022-11-29T05:25:40.331Z,1006.34
2022-11-29T05:26:20.828Z,1006.34
2022-11-29T05:27:01.302Z,1006.38
2022-11-29T05:27:41.790Z,1006.37
2022-11-29T05:28:22.289Z,1006.37
2022-11-29T05:29:02.751Z,1006.37
2022-11-29T05:29:43.304Z,1006.39
2022-11-29T05:30:23.788Z,1006.38
2022-11-29T05:31:04.304Z,1006.42
2022-11-29T05:31:44.792Z,1006.39
2022-11-29T05:32:25.296Z,1006.39
2022-11-29T05:33:05.841Z,1006.39
2022-11-29T05:33:46.329Z,1006.41
2022-11-29T05:34:30.353Z,1006.41
2022-11-29T05:35:07.324Z,1006.43
2022-11-29T05:35:47.843Z,1006.46
2022-11-29T05:36:28.925Z,1006.45
2022-11-29T05:37:10.316Z,1006.44
2022-11-29T05:37:50.824Z,1006.46
2022-11-29T05:38:31.315Z,1006.48
2022-11-29T05:39:11.821Z,1006.49
2022-11-29T05:39:52.278Z,1006.47
2022-11-29T05:40:32.829Z,1006.46
2022-11-29T05:41:13.327Z,1006.45
2022-11-29T05:41:53.842Z,1006.47
2022-11-29T05:42:34.399Z,1006.46
2022-11-29T05:43:14.855Z,1006.46
2022-11-29T05:43:55.399Z,1006.47
2022-11-29T05:45:16.399Z,1006.46
2022-11-29T05:45:56.870Z,1006.48
2022-11-29T05:46:37.468Z,1006.52
2022-11-29T05:47:17.932Z,1006.51
2022-11-29T05:47:58.403Z,1006.52
2022-11-29T05:48:38.863Z,1006.5
2022-11-29T05:49:19.367Z,1006.52
2022-11-29T05:49:59.862Z,1006.54
2022-11-29T05:50:40.396Z,1006.55
2022-11-29T05:51:20.839Z,1006.52
2022-11-29T05:52:01.356Z,1006.55
2022-11-29T05:52:41.846Z,1006.55
2022-11-29T06:32:29.221Z,1006.93
2022-11-29T06:33:09.833Z,1006.92
2022-11-29T06:33:50.621Z,1006.95
2022-11-29T06:34:31.599Z,1006.95
2022-11-29T06:35:12.137Z,1006.97
2022-11-29T06:35:52.959Z,1006.97
2022-11-29T06:36:33.670Z,1006.96
2022-11-29T06:37:14.399Z,1006.98
2022-11-29T06:37:55.196Z,1006.98
2022-11-29T06:38:36.011Z,1006.94
2022-11-29T06:39:16.760Z,1006.98
2022-11-29T06:39:57.614Z,1007
2022-11-29T06:40:38.885Z,1007.01
2022-11-29T06:41:20.069Z,1007.01
2022-11-29T06:42:00.912Z,1007.02
2022-11-29T06:42:43.931Z,1007.03
2022-11-29T06:43:24.409Z,1007.03
2022-11-29T06:44:05.042Z,1007.01
2022-11-29T06:44:45.804Z,1007
2022-11-29T06:45:26.123Z,1007.05
2022-11-29T06:46:06.549Z,1007.03
2022-11-29T06:47:27.749Z,1007.08
2022-11-29T06:48:08.660Z,1007.05
2022-11-29T06:48:49.016Z,1007.04
2022-11-29T06:49:29.823Z,1007.07
2022-11-29T06:50:11.300Z,1007.09
2022-11-29T06:50:51.856Z,1007.09
2022-11-29T06:51:33.257Z,1007.1
2022-11-29T06:52:13.785Z,1007.12
2022-11-29T06:52:54.526Z,1007.13
2022-11-29T06:53:35.140Z,1007.16
2022-11-29T06:54:15.859Z,1007.12
2022-11-29T06:54:56.387Z,1007.16
2022-11-29T06:55:37.065Z,1007.18
2022-11-29T06:56:17.527Z,1007.21
2022-11-29T06:56:58.147Z,1007.21
2022-11-29T06:57:38.732Z,1007.22
2022-11-29T06:58:20.287Z,1007.2
2022-11-29T06:59:04.913Z,1007.22
2022-11-29T06:59:45.459Z,1007.24
2022-11-29T07:00:26.249Z,1007.25
2022-11-29T07:01:06.805Z,1007.24
2022-11-29T07:01:47.367Z,1007.24
2022-11-29T07:02:28.668Z,1007.22
2022-11-29T07:03:09.950Z,1007.23
2022-11-29T07:03:50.485Z,1007.24
2022-11-29T07:04:30.977Z,1007.25
2022-11-29T07:05:14.703Z,1007.22
2022-11-29T07:05:56.476Z,1007.26
2022-11-29T07:06:36.938Z,1007.29
2022-11-29T07:13:48.222Z,1007.3
2022-11-29T07:14:28.665Z,1007.36
2022-11-29T07:15:09.172Z,1007.35
2022-11-29T07:15:49.690Z,1007.36
2022-11-29T07:16:30.248Z,1007.4
2022-11-29T07:17:10.684Z,1007.34
2022-11-29T07:17:51.889Z,1007.38
2022-11-29T07:18:32.410Z,1007.39
2022-11-29T07:19:12.969Z,1007.4
2022-11-29T07:19:53.419Z,1007.35
2022-11-29T07:20:33.967Z,1007.41
2022-11-29T07:21:15.359Z,1007.35
2022-11-29T07:24:14.838Z,1007.4
2022-11-29T07:24:55.369Z,1007.4
2022-11-29T07:25:35.910Z,1007.42
2022-11-29T07:26:16.423Z,1007.45
2022-11-29T07:26:59.662Z,1007.43
2022-11-29T07:33:00.406Z,1007.55
2022-11-29T07:33:39.070Z,1007.54
2022-11-29T07:34:19.858Z,1007.59
2022-11-29T07:35:01.615Z,1007.56
2022-11-29T07:35:42.100Z,1007.57
2022-11-29T07:36:23.288Z,1007.59
2022-11-29T07:37:03.901Z,1007.64
2022-11-29T07:37:44.443Z,1007.62
2022-11-29T07:38:26.409Z,1007.62
2022-11-29T07:39:06.450Z,1007.6
2022-11-29T07:39:47.053Z,1007.62
2022-11-29T07:40:27.727Z,1007.64
2022-11-29T07:41:08.265Z,1007.63
2022-11-29T07:41:48.775Z,1007.64
2022-11-29T07:42:30.999Z,1007.64
2022-11-29T07:43:11.514Z,1007.62
2022-11-29T07:43:52.012Z,1007.65
2022-11-29T07:44:32.630Z,1007.64
2022-11-29T07:45:13.163Z,1007.65
2022-11-29T07:45:53.757Z,1007.67
2022-11-29T07:46:34.318Z,1007.68
2022-11-29T07:47:14.901Z,1007.7
2022-11-29T07:47:55.437Z,1007.66
2022-11-29T07:48:36.060Z,1007.7
2022-11-29T07:49:16.653Z,1007.68
2022-11-29T07:49:57.255Z,1007.74
2022-11-29T07:50:38.564Z,1007.75
2022-11-29T07:51:19.104Z,1007.75
2022-11-29T07:51:59.732Z,1007.78
2022-11-29T07:52:41.255Z,1007.78
2022-11-29T07:53:21.896Z,1007.79
2022-11-29T07:54:02.551Z,1007.77
2022-11-29T07:54:44.286Z,1007.78
2022-11-29T07:55:24.407Z,1007.77
2022-11-29T07:56:04.955Z,1007.81
2022-11-29T07:56:47.315Z,1007.76
2022-11-29T07:57:27.867Z,1007.81
2022-11-29T08:02:47.553Z,1007.85
2022-11-29T08:05:34.399Z,1007.89
2022-11-29T08:06:16.062Z,1007.9
2022-11-29T08:06:56.771Z,1007.88
2022-11-29T08:07:37.671Z,1007.89
2022-11-29T08:08:18.377Z,1007.88
2022-11-29T08:08:59.055Z,1007.9
2022-11-29T08:09:39.712Z,1007.9
2022-11-29T08:10:21.021Z,1007.92
2022-11-29T08:11:01.885Z,1007.92
2022-11-29T08:11:42.385Z,1007.91
2022-11-29T08:12:23.564Z,1007.91
2022-11-29T08:13:03.958Z,1007.93
2022-11-29T08:13:45.101Z,1007.97
2022-11-29T08:14:25.530Z,1007.94
2022-11-29T08:15:47.089Z,1007.91
2022-11-29T08:16:28.050Z,1007.94
2022-11-29T08:17:08.933Z,1007.96
2022-11-29T08:17:49.505Z,1007.97
2022-11-29T08:18:30.941Z,1007.98
2022-11-29T08:19:11.863Z,1007.96
2022-11-29T08:19:52.470Z,1007.98
2022-11-29T08:20:34.370Z,1007.96
2022-11-29T08:21:15.022Z,1007.97
2022-11-29T08:21:55.870Z,1007.99
2022-11-29T08:23:17.766Z,1008.03
2022-11-29T08:23:58.640Z,1008.03
2022-11-29T08:24:39.496Z,1008.03
2022-11-29T08:25:20.094Z,1008.11
2022-11-29T08:27:18.844Z,1008.09
2022-11-29T08:28:01.249Z,1008.09
2022-11-29T08:28:41.813Z,1007.95
2022-11-29T08:29:22.248Z,1008.13
2022-11-29T08:31:27.045Z,1008.13
2022-11-29T08:32:08.064Z,1008.12
2022-11-29T08:32:51.499Z,1008.13
2022-11-29T08:33:30.507Z,1008.14
2022-11-29T08:34:11.506Z,1008.14
2022-11-29T08:34:52.589Z,1008.12
2022-11-29T08:35:33.715Z,1008.1
2022-11-29T08:38:32.931Z,1008.12
2022-11-29T08:39:14.141Z,1008.14
2022-11-29T08:39:55.137Z,1008.12
2022-11-29T08:40:36.285Z,1008.16
2022-11-29T08:41:18.474Z,1008.19
2022-11-29T08:41:59.578Z,1008.17
2022-11-29T08:42:40.684Z,1008.18
2022-11-29T08:43:21.708Z,1008.19
2022-11-29T08:44:02.781Z,1008.2
2022-11-29T08:44:44.305Z,1008.23
2022-11-29T08:45:25.206Z,1008.2
2022-11-29T08:48:40.327Z,1008.27
2022-11-29T08:49:20.929Z,1008.26
2022-11-29T08:50:01.379Z,1008.26
2022-11-29T08:50:41.926Z,1008.23
2022-11-29T08:51:22.668Z,1008.28
2022-11-29T08:52:03.992Z,1008.28
2022-11-29T08:52:44.557Z,1008.32
2022-11-29T08:53:25.721Z,1008.31
2022-11-29T08:54:06.408Z,1008.29
2022-11-29T08:54:47.425Z,1008.31
2022-11-29T08:55:27.682Z,1008.3
2022-11-29T08:56:23.855Z,1008.32
2022-11-29T08:57:16.905Z,1008.33
2022-11-29T08:57:39.637Z,1008.32
2022-11-29T08:58:10.199Z,1008.33
2022-11-29T08:58:51.105Z,1008.36
2022-11-29T08:59:31.608Z,1008.35
2022-11-29T09:00:12.395Z,1008.37
2022-11-29T09:00:55.744Z,1008.36
2022-11-29T09:01:36.335Z,1008.43
2022-11-29T09:02:16.821Z,1008.36
2022-11-29T09:02:59.009Z,1008.4
2022-11-29T09:03:42.110Z,1008.42
2022-11-29T09:04:23.428Z,1008.39
2022-11-29T09:05:07.515Z,1008.41
2022-11-29T09:08:59.142Z,1008.46
2022-11-29T09:09:42.807Z,1008.44
2022-11-29T09:10:23.617Z,1008.46
2022-11-29T09:11:04.347Z,1008.44
2022-11-29T09:11:49.178Z,1008.49
2022-11-29T09:12:25.688Z,1008.48
2022-11-29T09:13:06.391Z,1008.51
2022-11-29T09:13:46.952Z,1008.49
2022-11-29T09:14:28.233Z,1008.52
2022-11-29T09:17:36.210Z,1008.54
2022-11-29T09:20:49.991Z,1008.59
2022-11-29T09:21:30.408Z,1008.6
2022-11-29T09:22:11.004Z,1008.55
2022-11-29T09:22:52.227Z,1008.62
2022-11-29T09:23:32.856Z,1008.6
2022-11-29T09:24:13.535Z,1008.58
2022-11-29T09:24:54.102Z,1008.61
2022-11-29T09:25:35.379Z,1008.63
2022-11-29T09:26:17.489Z,1008.67
2022-11-29T09:26:57.686Z,1008.63
2022-11-29T09:27:38.250Z,1008.69
2022-11-29T09:28:59.310Z,1008.64
2022-11-29T09:29:39.868Z,1008.65
2022-11-29T09:30:23.615Z,1008.63
2022-11-29T09:31:01.119Z,1008.66
2022-11-29T09:31:41.670Z,1008.67
2022-11-29T09:32:22.336Z,1008.68
2022-11-29T09:33:02.923Z,1008.69
2022-11-29T09:33:43.483Z,1008.68
2022-11-29T09:34:29.721Z,1008.67
2022-11-29T09:35:10.172Z,1008.71
2022-11-29T09:36:31.312Z,1008.72
2022-11-29T09:37:11.953Z,1008.76
2022-11-29T09:37:52.527Z,1008.74
2022-11-29T09:38:33.049Z,1008.73
2022-11-29T09:39:13.562Z,1008.76
2022-11-29T09:39:54.065Z,1008.76
2022-11-29T09:40:34.649Z,1008.77
2022-11-29T09:41:15.184Z,1008.82
2022-11-29T09:41:55.789Z,1008.77
2022-11-29T09:45:24.678Z,1008.84
2022-11-29T09:46:05.250Z,1008.82
2022-11-29T09:46:45.939Z,1008.84
2022-11-29T09:47:27.284Z,1008.85
2022-11-29T09:48:07.817Z,1008.91
2022-11-29T09:51:26.572Z,1008.91
2022-11-29T09:52:07.155Z,1008.91
2022-11-29T09:52:49.948Z,1008.93
2022-11-29T09:53:30.519Z,1008.96
2022-11-29T09:54:11.094Z,1008.94
2022-11-29T09:54:51.605Z,1008.89
2022-11-29T09:55:33.201Z,1008.95
2022-11-29T09:56:16.853Z,1008.92
2022-11-29T09:56:58.770Z,1008.92
2022-11-29T09:57:39.687Z,1008.91
2022-11-29T09:58:20.231Z,1008.91
2022-11-29T10:01:20.840Z,1008.96
2022-11-29T10:04:38.283Z,1008.96
2022-11-29T10:05:19.495Z,1008.97
2022-11-29T10:05:59.578Z,1008.97
2022-11-29T10:06:40.043Z,1008.96
2022-11-29T10:07:20.726Z,1008.96
2022-11-29T10:08:01.298Z,1009.02
2022-11-29T10:08:41.970Z,1009.01
2022-11-29T10:09:22.542Z,1009.02
2022-11-29T10:10:03.206Z,1008.99
2022-11-29T10:10:43.749Z,1009.04
2022-11-29T10:11:24.402Z,1009.08
2022-11-29T10:12:04.948Z,1009.06
2022-11-29T10:12:45.518Z,1009.05
2022-11-29T10:13:26.088Z,1009.04
2022-11-29T10:14:06.678Z,1009.07
2022-11-29T10:14:47.494Z,1009.1
2022-11-29T10:15:28.110Z,1009.05
2022-11-29T10:16:08.866Z,1009.03
2022-11-29T10:17:29.964Z,1009.03
2022-11-29T10:20:48.737Z,1009.06
2022-11-29T10:21:25.141Z,1009.04
2022-11-29T10:22:05.600Z,1009.03
2022-11-29T10:22:46.155Z,1009.04
2022-11-29T10:23:26.737Z,1009.05
2022-11-29T10:24:07.290Z,1009.06
2022-11-29T10:24:48.107Z,1009.04
2022-11-29T10:25:28.446Z,1009.04
2022-11-29T10:26:08.923Z,1009.03
2022-11-29T10:26:49.673Z,1009.06
2022-11-29T10:27:30.296Z,1009.03
2022-11-29T10:28:10.843Z,1009.04